Time;durP1;ratioP1;P1;durP2;ratioP2;P2;SDS_P1;SDS_P2;PMS_P1;PMS_P2;Temp;Humidity;BMP_temperature;BMP_pressure;BME280_temperature;BME280_humidity;BME280_pressure;Samples;Min_cycle;Max_cycle;Signal;HPM_P1;HPM_P2
2021/04/15 00:01:58;;;;;;;4.45;1.73;;;;;;;3.76;82.95;103114.69;9789717;30;20045;-78
2021/04/15 00:06:58;;;;;;;14.43;1.98;;;;;;;3.60;83.46;103094.25;9774446;30;20104;-78
2021/04/15 00:11:58;;;;;;;2.72;1.63;;;;;;;3.25;84.48;103060.81;9761953;30;20483;-78
2021/04/15 00:17:00;;;;;;;4.77;1.77;;;;;;;3.42;85.15;103099.97;9757319;30;20182;-78
2021/04/15 00:22:01;;;;;;;5.03;1.60;;;;;;;3.39;85.02;103099.41;9769332;30;20066;-78
2021/04/15 00:27:02;;;;;;;7.90;1.67;;;;;;;3.11;85.74;103059.63;9766649;30;20076;-78
2021/04/15 00:32:03;;;;;;;9.75;2.13;;;;;;;3.26;86.57;103083.78;9765132;30;20051;-79
2021/04/15 00:37:03;;;;;;;8.18;2.58;;;;;;;3.14;86.56;103069.78;9772528;30;20056;-79
2021/04/15 00:42:04;;;;;;;6.45;1.90;;;;;;;3.09;87.01;103080.44;9745084;30;20052;-79
2021/04/15 00:47:19;;;;;;;5.10;1.92;;;;;;;2.96;87.54;103065.59;9766520;30;20930;-76
2021/04/15 00:52:21;;;;;;;7.05;2.03;;;;;;;2.67;88.72;103027.66;9776915;30;20073;-79
2021/04/15 00:57:29;;;;;;;5.00;1.92;;;;;;;3.03;90.88;103084.09;9759547;30;20415;-79
2021/04/15 01:02:34;;;;;;;6.75;2.13;;;;;;;2.62;90.13;103011.59;9743188;30;20496;-78
2021/04/15 01:07:34;;;;;;;6.80;2.72;;;;;;;2.75;90.53;103052.06;9741753;30;20392;-79
2021/04/15 01:13:05;;;;;;;7.80;2.60;;;;;;;2.78;90.63;103061.44;9762927;30;20041;-78
2021/04/15 01:18:15;;;;;;;10.73;2.47;;;;;;;2.75;91.29;103061.91;9759375;30;20081;-78
2021/04/15 01:23:32;;;;;;;7.63;2.10;;;;;;;2.77;91.74;103078.50;9773531;30;20381;-77
2021/04/15 01:28:54;;;;;;;10.15;2.30;;;;;;;2.71;92.82;103077.66;9764665;30;20052;-78
2021/04/15 01:34:09;;;;;;;8.20;2.70;;;;;;;2.65;94.17;103083.97;9781155;30;20119;-77
2021/04/15 01:39:17;;;;;;;7.43;3.65;;;;;;;2.58;94.61;103071.88;9772092;30;20613;-76
2021/04/15 01:44:47;;;;;;;9.50;3.30;;;;;;;2.53;95.64;103070.75;9771226;30;20060;-79
2021/04/15 01:49:51;;;;;;;8.68;2.95;;;;;;;2.50;95.63;103071.28;9739998;30;20056;-78
2021/04/15 01:55:08;;;;;;;8.40;3.10;;;;;;;2.07;95.92;102998.16;9760716;30;20375;-76
2021/04/15 02:00:34;;;;;;;10.10;2.83;;;;;;;2.47;96.07;103065.59;9759591;30;20403;-77
2021/04/15 02:05:37;;;;;;;9.65;2.67;;;;;;;2.38;96.63;103054.59;9775307;30;20052;-78
2021/04/15 02:10:43;;;;;;;7.32;3.42;;;;;;;2.04;96.58;102997.84;9767220;30;20364;-78
2021/04/15 02:15:50;;;;;;;10.32;3.45;;;;;;;2.04;96.77;103014.66;9764126;30;20055;-77
2021/04/15 02:20:53;;;;;;;7.75;3.42;;;;;;;2.27;97.22;103047.50;9751192;30;20440;-78
2021/04/15 02:26:06;;;;;;;13.25;4.25;;;;;;;2.24;97.95;103045.34;9764266;30;20068;-77
2021/04/15 02:31:13;;;;;;;10.15;4.15;;;;;;;2.00;98.32;103013.56;9780462;30;20037;-79
2021/04/15 02:36:15;;;;;;;11.73;5.80;;;;;;;1.95;98.63;103013.47;9774901;30;20053;-78
2021/04/15 02:41:19;;;;;;;14.75;5.30;;;;;;;2.24;99.07;103066.69;9761656;30;20037;-78
2021/04/15 02:46:26;;;;;;;9.15;4.88;;;;;;;2.15;98.90;103057.50;9766178;30;20076;-78
2021/04/15 02:51:33;;;;;;;11.63;5.00;;;;;;;1.79;99.45;103006.34;9784313;30;20053;-78
2021/04/15 02:56:46;;;;;;;8.20;5.25;;;;;;;1.80;99.15;103023.94;9778495;30;20069;-78
2021/04/15 03:01:51;;;;;;;9.52;5.30;;;;;;;1.70;99.37;103016.63;9773253;30;20052;-77
2021/04/15 03:06:57;;;;;;;11.48;5.20;;;;;;;1.25;99.46;102959.72;9774572;30;21060;-77
2021/04/15 03:12:07;;;;;;;10.55;5.47;;;;;;;1.80;98.80;103055.94;9770247;30;20044;-77
2021/04/15 03:17:10;;;;;;;12.80;6.00;;;;;;;1.79;99.20;103059.69;9776544;30;20114;-79
2021/04/15 03:22:18;;;;;;;20.58;5.95;;;;;;;1.72;100.00;103053.69;9796579;30;20052;-78
2021/04/15 03:27:30;;;;;;;15.77;6.57;;;;;;;1.50;100.00;103009.13;9771311;30;20103;-78
2021/04/15 03:32:40;;;;;;;;;;;;;;;1.72;100.00;103064.34;9769239;30;20041;-77
2021/04/15 03:37:43;;;;;;;12.18;5.20;;;;;;;1.69;100.00;103066.47;9767389;30;19971;-77
2021/04/15 03:42:46;;;;;;;12.15;5.68;;;;;;;1.25;100.00;103002.38;9781889;30;20044;-78
2021/04/15 03:47:53;;;;;;;12.75;6.15;;;;;;;1.52;100.00;103049.66;9774910;30;20199;-77
2021/04/15 03:52:58;;;;;;;16.55;6.30;;;;;;;1.43;100.00;103045.78;9772920;30;20419;-78
2021/04/15 03:58:08;;;;;;;11.18;5.80;;;;;;;1.45;100.00;103059.69;9766454;30;20049;-78
2021/04/15 04:03:11;;;;;;;12.73;5.82;;;;;;;1.45;100.00;103065.03;9757076;30;20544;-79
2021/04/15 04:08:19;;;;;;;11.02;6.03;;;;;;;1.27;100.00;103037.56;9762342;30;20056;-79
2021/04/15 04:13:33;;;;;;;11.88;5.63;;;;;;;1.11;100.00;103025.03;9765402;30;20099;-80
2021/04/15 04:18:47;;;;;;;15.25;5.78;;;;;;;0.93;100.00;103003.97;9726630;30;20049;-78
2021/04/15 04:24:09;;;;;;;13.82;6.13;;;;;;;1.30;100.00;103056.78;9777496;30;20132;-80
2021/04/15 04:29:33;;;;;;;15.40;6.53;;;;;;;1.32;100.00;103070.66;9761152;30;20127;-79
2021/04/15 04:34:34;;;;;;;11.75;6.28;;;;;;;1.26;100.00;103062.59;9767581;30;20153;-78
2021/04/15 04:39:34;;;;;;;12.52;6.78;;;;;;;0.89;100.00;102997.50;9738952;30;20168;-79
2021/04/15 04:44:47;;;;;;;13.65;6.75;;;;;;;1.20;100.00;103052.91;9776072;30;20053;-79
2021/04/15 04:50:11;;;;;;;14.43;6.43;;;;;;;1.23;100.00;103060.41;9762525;30;20065;-81
2021/04/15 04:56:00;;;;;;;16.63;6.88;;;;;;;1.24;100.00;103059.34;9741814;30;20060;-77
2021/04/15 05:01:03;;;;;;;13.38;6.70;;;;;;;0.92;100.00;103012.97;9755702;30;20151;-78
2021/04/15 05:06:07;;;;;;;15.60;7.20;;;;;;;1.17;100.00;103053.38;9783257;30;20204;-78
2021/04/15 05:11:08;;;;;;;15.07;6.97;;;;;;;1.34;100.00;103052.56;9758160;30;20041;-78
2021/04/15 05:16:08;;;;;;;18.73;9.55;;;;;;;1.17;100.00;103005.41;9761659;30;20053;-77
2021/04/15 05:21:15;;;;;;;17.80;8.40;;;;;;;1.47;100.00;103041.59;9749880;30;20056;-77
2021/04/15 05:26:19;;;;;;;16.35;8.38;;;;;;;1.26;100.00;103014.63;9768545;30;20114;-77
2021/04/15 05:31:22;;;;;;;20.60;10.48;;;;;;;1.42;100.00;103012.22;9759253;30;20044;-78
2021/04/15 05:36:41;;;;;;;;;;;;;;;2.14;100.00;103071.88;9748036;30;20057;-77
2021/04/15 05:41:56;;;;;;;13.65;6.82;;;;;;;2.48;100.00;103068.03;9752343;30;19935;-78
2021/04/15 05:46:57;;;;;;;19.25;7.32;;;;;;;2.70;100.00;103068.00;9781130;30;20052;-77
2021/04/15 05:52:24;;;;;;;12.68;6.65;;;;;;;2.94;100.00;103076.56;9771064;30;20479;-76
2021/04/15 05:57:29;;;;;;;14.15;6.63;;;;;;;2.93;100.00;103052.75;9739941;30;20068;-76
2021/04/15 06:02:32;;;;;;;10.68;5.72;;;;;;;3.27;100.00;103090.75;9773841;30;20063;-77
2021/04/15 06:07:34;;;;;;;12.35;6.13;;;;;;;3.33;100.00;103073.69;9770348;30;20056;-77
2021/04/15 06:12:50;;;;;;;11.18;6.15;;;;;;;3.55;100.00;103080.81;9767429;30;20049;-77
2021/04/15 06:18:14;;;;;;;9.25;5.28;;;;;;;3.75;100.00;103075.59;9778447;30;20072;-77
2021/04/15 06:23:22;;;;;;;8.02;3.78;;;;;;;4.13;100.00;103089.75;9779002;30;20392;-77
2021/04/15 06:28:30;;;;;;;11.63;2.90;;;;;;;4.32;99.16;103091.97;9782377;30;20037;-77
2021/04/15 06:33:30;;;;;;;9.93;2.88;;;;;;;4.42;98.96;103083.97;9764255;30;20165;-77
2021/04/15 06:38:57;;;;;;;10.80;3.25;;;;;;;4.49;97.79;103068.47;9763676;30;20142;-77
2021/04/15 06:44:51;;;;;;;4.75;2.20;;;;;;;4.86;97.21;103083.56;9775571;30;20100;-77
2021/04/15 06:50:13;;;;;;;4.57;2.00;;;;;;;5.25;96.10;103085.78;9729297;30;20068;-78
2021/04/15 06:55:41;;;;;;;9.65;2.85;;;;;;;5.45;92.63;103085.75;9771013;30;20057;-77
2021/04/15 07:00:54;;;;;;;9.85;2.95;;;;;;;5.54;92.68;103079.88;9778585;30;20049;-78
2021/04/15 07:06:17;;;;;;;9.18;2.60;;;;;;;5.40;91.13;103076.94;9771210;30;20140;-78
2021/04/15 07:11:59;;;;;;;6.15;2.28;;;;;;;5.46;91.38;103102.69;9743453;30;20045;-77
2021/04/15 07:17:09;;;;;;;5.65;2.60;;;;;;;5.48;91.64;103095.97;9710969;30;20068;-78
2021/04/15 07:22:47;;;;;;;7.35;2.40;;;;;;;5.58;91.55;103089.81;9777811;30;20049;-78
2021/04/15 07:27:48;;;;;;;7.30;2.60;;;;;;;5.49;91.23;103086.84;9770534;30;20519;-79
2021/04/15 07:33:01;;;;;;;6.28;2.50;;;;;;;5.55;90.77;103094.88;9773435;30;20041;-80
2021/04/15 07:38:09;;;;;;;6.72;2.47;;;;;;;5.72;91.00;103079.31;9783406;30;20103;-79
2021/04/15 07:43:41;;;;;;;11.43;2.67;;;;;;;6.09;91.90;103078.16;9759524;30;20063;-77
2021/04/15 07:48:53;;;;;;;6.28;2.20;;;;;;;7.33;83.32;103079.09;9779034;30;20162;-79
2021/04/15 07:54:05;;;;;;;6.07;1.23;;;;;;;8.70;73.98;103062.50;9765846;30;20468;-79
2021/04/15 07:59:33;;;;;;;9.43;2.00;;;;;;;9.76;68.76;103092.63;9755150;30;20475;-79
2021/04/15 08:04:47;;;;;;;6.05;1.45;;;;;;;10.66;63.25;103082.22;9773111;30;20052;-80
2021/04/15 08:09:51;;;;;;;4.05;1.50;;;;;;;11.26;60.80;103083.78;9747842;30;20548;-80
2021/04/15 08:15:10;;;;;;;8.57;1.88;;;;;;;13.43;52.08;103043.53;9763856;30;20122;-79
2021/04/15 08:20:14;;;;;;;6.35;1.30;;;;;;;13.34;50.61;103088.94;9766440;30;20108;-81
2021/04/15 08:25:22;;;;;;;6.20;2.08;;;;;;;13.02;50.34;103093.72;9784328;30;20099;-80
2021/04/15 08:30:41;;;;;;;8.18;1.98;;;;;;;11.69;52.30;103037.97;9758964;30;20570;-77
2021/04/15 08:36:13;;;;;;;9.57;1.70;;;;;;;11.04;55.86;103098.13;9753677;30;20761;-77
2021/04/15 08:41:45;;;;;;;9.45;1.90;;;;;;;11.61;54.82;103090.97;9759123;30;20123;-78
2021/04/15 08:46:54;;;;;;;4.72;1.70;;;;;;;13.50;47.32;103081.06;9763069;30;20053;-78
2021/04/15 08:52:10;;;;;;;9.75;1.88;;;;;;;13.73;47.15;103097.91;9744811;30;20072;-76
2021/04/15 08:57:30;;;;;;;3.33;1.23;;;;;;;16.40;41.00;103080.56;9769157;30;21092;-81
2021/04/15 09:03:23;;;;;;;6.28;1.55;;;;;;;16.78;37.98;103068.38;9754268;30;20052;-79
2021/04/15 09:08:30;;;;;;;6.22;2.20;;;;;;;17.29;34.50;103027.59;9738142;30;20177;-78
2021/04/15 09:13:42;;;;;;;8.75;1.60;;;;;;;17.18;33.38;103067.53;9738402;30;20063;-80
2021/04/15 09:18:59;;;;;;;6.83;1.60;;;;;;;17.45;34.07;103073.28;9783799;30;20052;-78
2021/04/15 09:24:23;;;;;;;7.15;1.42;;;;;;;18.71;31.97;103060.50;9782172;30;20079;-78
2021/04/15 09:29:49;;;;;;;6.28;1.50;;;;;;;20.78;28.16;103067.69;9753599;30;20056;-79
2021/04/15 09:35:09;;;;;;;4.43;1.38;;;;;;;17.06;34.41;103075.81;9759252;30;20045;-77
2021/04/15 09:40:12;;;;;;;7.47;2.20;;;;;;;14.99;38.29;103019.91;9758522;30;20049;-77
2021/04/15 09:45:21;;;;;;;7.55;1.58;;;;;;;14.64;38.70;103076.63;9754504;30;20048;-76
2021/04/15 09:50:47;;;;;;;8.25;1.85;;;;;;;15.88;37.62;103070.38;9751693;30;20466;-77
2021/04/15 09:56:14;;;;;;;7.10;1.85;;;;;;;17.47;31.67;103071.00;9766633;30;20048;-77
2021/04/15 10:01:21;;;;;;;3.75;1.30;;;;;;;14.89;36.79;103046.78;9741195;30;20072;-77
2021/04/15 10:06:27;;;;;;;6.28;1.67;;;;;;;13.57;40.04;103075.09;9755420;30;20060;-76
2021/04/15 10:12:12;;;;;;;6.35;1.55;;;;;;;12.19;41.17;102975.31;9760726;30;20082;-78
2021/04/15 10:17:24;;;;;;;3.97;1.25;;;;;;;14.22;35.49;103068.41;9747496;30;20061;-76
2021/04/15 10:23:05;;;;;;;5.37;1.00;;;;;;;17.28;31.56;103058.81;9752855;30;20135;-79
2021/04/15 10:28:12;;;;;;;12.07;1.65;;;;;;;18.37;31.40;103074.69;9762452;30;20048;-78
2021/04/15 10:33:22;;;;;;;6.07;1.70;;;;;;;17.78;32.22;103072.13;9764769;30;20045;-80
2021/04/15 10:38:53;;;;;;;2.78;1.10;;;;;;;16.01;34.59;102981.94;9749327;30;20110;-79
2021/04/15 10:44:14;;;;;;;4.50;0.90;;;;;;;17.37;30.07;103063.31;9759418;30;20124;-79
2021/04/15 10:49:27;;;;;;;4.88;1.30;;;;;;;16.25;35.36;103059.41;9760993;30;20049;-79
2021/04/15 10:54:28;;;;;;;4.00;0.80;;;;;;;16.02;33.31;103059.91;9761425;30;20060;-79
2021/04/15 10:59:35;;;;;;;4.67;1.67;;;;;;;16.43;34.25;103047.09;9741429;30;20045;-78
2021/04/15 11:04:36;;;;;;;5.93;1.10;;;;;;;14.73;35.50;103050.13;9761593;30;20048;-79
2021/04/15 11:09:38;;;;;;;2.30;0.90;;;;;;;13.52;37.37;102992.66;9742382;30;20492;-80
2021/04/15 11:14:47;;;;;;;8.40;2.67;;;;;;;13.11;39.12;102961.44;9754500;30;20053;-79
2021/04/15 11:20:07;;;;;;;4.15;1.20;;;;;;;12.24;41.70;102956.16;9757182;30;20195;-77
2021/04/15 11:25:25;;;;;;;5.05;1.58;;;;;;;12.61;43.77;103035.31;9749369;30;20406;-77
2021/04/15 11:30:35;;;;;;;3.88;1.25;;;;;;;12.94;43.37;103048.38;9760049;30;20045;-76
2021/04/15 11:35:36;;;;;;;5.57;1.80;;;;;;;13.14;43.09;102999.94;9767133;30;20120;-78
2021/04/15 11:40:39;;;;;;;5.05;1.35;;;;;;;13.10;40.70;103019.63;9777718;30;20117;-79
2021/04/15 11:45:41;;;;;;;4.20;1.77;;;;;;;12.76;42.49;103035.94;9777499;30;20071;-78
2021/04/15 11:50:42;;;;;;;4.53;1.42;;;;;;;12.42;44.30;103037.53;9764693;30;20061;-81
2021/04/15 11:55:43;;;;;;;9.85;1.40;;;;;;;12.45;43.44;103009.78;9768849;30;20533;-82
2021/04/15 12:00:44;;;;;;;6.07;1.60;;;;;;;12.65;42.91;103041.72;9726472;30;20059;-78
2021/04/15 12:05:46;;;;;;;6.13;1.52;;;;;;;12.71;40.62;103022.53;9748528;30;20055;-76
2021/04/15 12:11:05;;;;;;;3.88;1.55;;;;;;;13.06;40.21;103034.94;9738882;30;20083;-76
2021/04/15 12:16:13;;;;;;;4.72;1.60;;;;;;;13.23;40.11;103027.88;9720470;30;20057;-76
2021/04/15 12:21:24;;;;;;;4.88;1.85;;;;;;;13.76;38.35;102953.22;9754955;30;20049;-77
2021/04/15 12:26:55;;;;;;;7.15;1.85;;;;;;;13.86;38.81;103039.81;9739958;30;20081;-78
2021/04/15 12:32:02;;;;;;;4.18;1.50;;;;;;;13.21;39.83;103040.97;9741602;30;20063;-76
2021/04/15 12:37:07;;;;;;;9.98;1.60;;;;;;;12.87;39.28;103004.66;9741812;30;20526;-75
2021/04/15 12:42:09;;;;;;;3.50;1.50;;;;;;;12.08;40.67;102941.47;9772205;30;20059;-77
2021/04/15 12:47:10;;;;;;;3.43;1.30;;;;;;;12.44;38.68;102986.47;9738813;30;20756;-77
2021/04/15 12:52:12;;;;;;;3.30;1.10;;;;;;;11.95;39.27;102974.97;9757113;30;20053;-76
2021/04/15 12:57:15;;;;;;;5.15;1.23;;;;;;;12.04;38.89;102978.47;9769827;30;20278;-77
2021/04/15 13:02:27;;;;;;;2.63;1.55;;;;;;;12.74;38.59;103021.91;9747572;30;20044;-77
2021/04/15 13:07:34;;;;;;;5.45;1.30;;;;;;;13.40;37.49;103027.84;9735443;30;20057;-77
2021/04/15 13:12:35;;;;;;;5.13;1.85;;;;;;;13.31;38.48;103018.94;9767549;30;20119;-77
2021/04/15 13:17:36;;;;;;;3.13;1.27;;;;;;;12.99;37.43;102974.91;9756502;30;20063;-78
2021/04/15 13:22:38;;;;;;;3.72;1.20;;;;;;;12.74;38.04;102973.03;9766097;30;20090;-75
2021/04/15 13:27:40;;;;;;;;;;;;;;;12.97;37.78;103012.44;9774739;30;20380;-78
2021/04/15 13:32:59;;;;;;;5.28;1.40;;;;;;;12.78;39.50;103001.16;9776697;30;19977;-78
2021/04/15 13:38:00;;;;;;;5.93;1.70;;;;;;;12.86;39.21;102997.59;9769278;30;20132;-74
2021/04/15 13:43:35;;;;;;;6.18;1.63;;;;;;;12.48;41.80;103003.69;9773308;30;20052;-76
2021/04/15 13:48:43;;;;;;;4.35;1.80;;;;;;;12.33;43.22;103006.91;9778633;30;20041;-77
2021/04/15 13:53:49;;;;;;;3.65;1.70;;;;;;;12.49;43.64;102989.03;9780447;30;20060;-77
2021/04/15 13:58:50;;;;;;;6.40;1.88;;;;;;;12.30;42.14;102947.84;9779947;30;20111;-77
2021/04/15 14:03:50;;;;;;;4.03;1.60;;;;;;;12.82;40.77;102992.03;9763382;30;20059;-77
2021/04/15 14:09:01;;;;;;;4.30;1.38;;;;;;;12.60;42.22;102990.28;9777646;30;20056;-76
2021/04/15 14:14:06;;;;;;;4.95;1.90;;;;;;;12.53;42.22;102968.28;9760737;30;20048;-77
2021/04/15 14:19:13;;;;;;;2.08;1.45;;;;;;;12.13;42.63;102949.44;9792473;30;21010;-81
2021/04/15 14:24:23;;;;;;;2.58;1.58;;;;;;;12.65;41.67;102971.16;9782757;30;20176;-82
2021/04/15 14:29:23;;;;;;;5.10;2.08;;;;;;;12.13;44.06;102971.13;9769069;30;20101;-80
2021/04/15 14:34:27;;;;;;;5.00;1.70;;;;;;;11.66;42.97;102930.22;9770731;30;20133;-80
2021/04/15 14:39:49;;;;;;;5.22;1.58;;;;;;;12.17;42.07;102961.25;9779659;30;20147;-81
2021/04/15 14:45:16;;;;;;;2.57;1.50;;;;;;;12.01;41.71;102957.41;9770272;30;20456;-79
2021/04/15 14:50:26;;;;;;;4.75;1.75;;;;;;;12.16;40.35;102937.97;9762618;30;20556;-80
2021/04/15 14:55:30;;;;;;;5.07;1.67;;;;;;;11.87;42.53;102962.16;9758912;30;20111;-79
2021/04/15 15:00:43;;;;;;;4.88;2.00;;;;;;;11.55;42.58;102961.44;9761749;30;20040;-80
2021/04/15 15:05:46;;;;;;;;;;;;;;;12.04;40.99;102956.78;9754887;30;20128;-81
2021/04/15 15:10:48;;;;;;;6.00;2.45;;;;;;;11.53;41.66;102921.13;9757561;30;20331;-80
2021/04/15 15:15:49;;;;;;;5.33;1.67;;;;;;;11.34;42.67;102951.16;9758574;30;20498;-78
2021/04/15 15:20:55;;;;;;;3.92;1.77;;;;;;;11.23;43.31;102960.66;9751280;30;20056;-77
2021/04/15 15:26:15;;;;;;;3.13;1.50;;;;;;;11.25;42.31;102947.63;9765497;30;20060;-77
2021/04/15 15:31:17;;;;;;;6.00;2.45;;;;;;;11.10;42.20;102919.06;9762178;30;20043;-77
2021/04/15 15:36:25;;;;;;;4.47;1.92;;;;;;;11.15;42.56;102942.47;9750728;30;20032;-79
2021/04/15 15:41:39;;;;;;;4.88;1.60;;;;;;;11.52;42.05;102956.63;9750111;30;20068;-80
2021/04/15 15:46:40;;;;;;;9.52;2.08;;;;;;;11.11;43.79;102957.75;9777909;30;20861;-76
2021/04/15 15:51:44;;;;;;;4.85;2.13;;;;;;;10.50;43.87;102887.84;9773695;30;20111;-80
2021/04/15 15:56:45;;;;;;;4.53;1.95;;;;;;;10.47;43.88;102874.94;9776637;30;20053;-78
2021/04/15 16:01:53;;;;;;;6.13;2.35;;;;;;;11.04;43.07;102946.56;9766465;30;20056;-80
2021/04/15 16:07:43;;;;;;;4.35;1.90;;;;;;;10.90;42.08;102942.03;9742567;30;20347;-76
2021/04/15 16:12:48;;;;;;;3.35;1.40;;;;;;;10.95;43.12;102944.59;9735709;30;20157;-76
2021/04/15 16:18:02;;;;;;;6.50;1.35;;;;;;;11.33;39.77;102917.06;9740560;30;20064;-76
2021/04/15 16:23:03;;;;;;;4.10;1.70;;;;;;;11.45;39.76;102902.13;9758143;30;20223;-79
2021/04/15 16:28:04;;;;;;;4.35;1.38;;;;;;;11.97;38.64;102929.34;9746522;30;20056;-78
2021/04/15 16:33:05;;;;;;;1.83;1.00;;;;;;;12.20;35.13;102900.97;9746330;30;20048;-77
2021/04/15 16:38:11;;;;;;;3.92;1.58;;;;;;;11.71;35.43;102900.28;9771552;30;20058;-77
2021/04/15 16:43:12;;;;;;;2.92;1.10;;;;;;;11.94;37.31;102919.13;9742450;30;20041;-80
2021/04/15 16:48:12;;;;;;;3.15;1.20;;;;;;;11.94;36.49;102935.41;9744503;30;20061;-77
2021/04/15 16:53:14;;;;;;;2.88;1.20;;;;;;;12.06;36.84;102927.44;9767726;30;20056;-79
2021/04/15 16:58:19;;;;;;;2.85;1.55;;;;;;;12.39;36.97;102924.25;9784718;30;20095;-77
2021/04/15 17:03:20;;;;;;;2.25;1.30;;;;;;;12.09;38.09;102905.13;9789420;30;20270;-78
2021/04/15 17:08:21;;;;;;;2.75;1.17;;;;;;;12.29;37.69;102919.16;9781650;30;20058;-78
2021/04/15 17:13:22;;;;;;;2.28;1.30;;;;;;;12.52;38.77;102907.00;9780183;30;20451;-79
2021/04/15 17:18:24;;;;;;;2.53;1.60;;;;;;;12.56;39.64;102929.66;9755931;30;20045;-79
2021/04/15 17:23:26;;;;;;;2.83;1.55;;;;;;;12.32;39.99;102923.94;9776970;30;21927;-75
2021/04/15 17:28:28;;;;;;;3.72;1.40;;;;;;;11.58;40.77;102868.69;9779830;30;20622;-78
2021/04/15 17:33:29;;;;;;;2.58;1.65;;;;;;;11.23;41.67;102884.06;9786330;30;20426;-79
2021/04/15 17:38:30;;;;;;;3.15;1.08;;;;;;;11.06;42.96;102901.03;9780839;30;20048;-78
2021/04/15 17:43:36;;;;;;;2.40;1.55;;;;;;;10.91;41.96;102867.88;9744977;30;20499;-77
2021/04/15 17:48:38;;;;;;;2.70;1.63;;;;;;;10.98;43.35;102927.75;9777824;30;20461;-76
2021/04/15 17:53:40;;;;;;;4.28;1.85;;;;;;;10.20;44.86;102864.22;9762189;30;20067;-78
2021/04/15 17:58:41;;;;;;;4.72;2.65;;;;;;;9.94;45.69;102872.91;9760966;30;20179;-74
2021/04/15 18:03:44;;;;;;;2.58;1.40;;;;;;;9.76;45.77;102854.94;9764136;30;20124;-77
2021/04/15 18:08:44;;;;;;;;;;;;;;;10.16;45.36;102929.69;9760332;30;20052;-76
2021/04/15 18:13:45;;;;;;;2.80;1.42;;;;;;;10.14;45.52;102931.91;9769741;30;19923;-75
2021/04/15 18:18:45;;;;;;;5.85;2.00;;;;;;;9.52;46.20;102850.59;9772606;30;20056;-76
2021/04/15 18:23:46;;;;;;;3.67;1.70;;;;;;;9.67;47.48;102901.59;9778110;30;20064;-75
2021/04/15 18:28:47;;;;;;;3.40;2.00;;;;;;;9.18;48.01;102862.63;9769275;30;20285;-76
2021/04/15 18:33:48;;;;;;;4.20;2.17;;;;;;;9.22;49.71;102928.41;9780840;30;20106;-77
2021/04/15 18:38:54;;;;;;;5.68;1.83;;;;;;;9.14;50.41;102942.56;9755601;30;20060;-77
2021/04/15 18:43:55;;;;;;;5.63;2.08;;;;;;;8.91;52.16;102959.69;9766757;30;20091;-76
2021/04/15 18:48:55;;;;;;;4.47;1.95;;;;;;;8.59;52.87;102920.88;9773801;30;20056;-77
2021/04/15 18:53:56;;;;;;;5.80;2.55;;;;;;;8.55;53.72;102946.81;9770531;30;20069;-73
2021/04/15 18:59:00;;;;;;;7.35;2.80;;;;;;;8.53;53.71;102971.34;9775084;30;20468;-76
2021/04/15 19:04:02;;;;;;;4.28;2.20;;;;;;;8.30;54.97;102964.94;9744320;30;20111;-78
2021/04/15 19:09:03;;;;;;;6.05;2.20;;;;;;;7.91;55.26;102928.28;9745568;30;20187;-77
2021/04/15 19:14:03;;;;;;;6.45;2.67;;;;;;;8.12;56.34;102988.06;9756097;30;20406;-76
2021/04/15 19:19:04;;;;;;;4.57;2.45;;;;;;;7.97;56.68;102975.59;9759589;30;20063;-76
2021/04/15 19:24:05;;;;;;;7.72;2.47;;;;;;;7.91;57.07;102990.22;9757231;30;20196;-77
2021/04/15 19:29:06;;;;;;;6.10;2.20;;;;;;;7.10;57.53;102881.59;9735471;30;20075;-76
2021/04/15 19:34:07;;;;;;;6.82;2.28;;;;;;;7.55;58.40;102974.47;9764141;30;20053;-76
2021/04/15 19:39:10;;;;;;;6.10;3.00;;;;;;;7.32;58.98;102964.50;9757816;30;20052;-76
2021/04/15 19:44:10;;;;;;;10.05;3.03;;;;;;;7.42;58.83;102991.28;9759943;30;20044;-75
2021/04/15 19:49:11;;;;;;;8.98;3.83;;;;;;;7.28;60.23;102990.34;9757645;30;20052;-75
2021/04/15 19:54:13;;;;;;;9.55;4.00;;;;;;;7.07;60.57;102979.78;9742126;30;20376;-76
2021/04/15 19:59:13;;;;;;;8.00;3.10;;;;;;;7.13;61.04;102994.81;9746421;30;20452;-75
2021/04/15 20:04:14;;;;;;;10.02;3.25;;;;;;;6.86;60.97;102962.22;9754589;30;20045;-75
2021/04/15 20:09:14;;;;;;;8.40;4.05;;;;;;;7.06;61.70;102993.53;9747540;30;20136;-76
2021/04/15 20:14:15;;;;;;;11.85;4.68;;;;;;;6.68;61.71;102944.88;9767455;30;20060;-75
2021/04/15 20:19:15;;;;;;;9.93;5.03;;;;;;;6.86;62.53;102995.28;9773885;30;20049;-76
2021/04/15 20:24:16;;;;;;;7.63;4.03;;;;;;;6.78;62.36;102999.38;9750748;30;20114;-78
2021/04/15 20:29:17;;;;;;;9.38;4.53;;;;;;;6.70;62.77;102991.91;9737774;30;20387;-74
2021/04/15 20:34:17;;;;;;;6.57;3.13;;;;;;;6.54;62.86;102983.16;9760530;30;20416;-75
2021/04/15 20:39:18;;;;;;;9.13;3.90;;;;;;;6.54;63.43;102998.47;9753423;30;20052;-83
2021/04/15 20:44:18;;;;;;;6.78;3.38;;;;;;;6.30;63.68;102974.97;9755637;30;20086;-77
2021/04/15 20:49:20;;;;;;;6.00;2.95;;;;;;;6.31;64.14;102984.63;9760453;30;20056;-79
2021/04/15 20:54:20;;;;;;;7.35;3.50;;;;;;;6.28;64.24;103001.31;9745143;30;20554;-81
2021/04/15 20:59:21;;;;;;;8.07;3.70;;;;;;;5.82;64.65;102929.00;9745504;30;20064;-77
2021/04/15 21:04:22;;;;;;;9.02;3.30;;;;;;;5.73;65.07;102936.00;9744593;30;20044;-78
2021/04/15 21:09:22;;;;;;;8.18;3.63;;;;;;;5.82;65.25;102955.81;9774472;30;20060;-79
2021/04/15 21:14:23;;;;;;;10.02;3.97;;;;;;;5.86;65.72;102978.38;9759365;30;20048;-78
2021/04/15 21:19:24;;;;;;;11.30;3.47;;;;;;;5.64;66.27;102948.38;9772725;30;20045;-78
2021/04/15 21:24:24;;;;;;;7.60;3.33;;;;;;;5.86;66.48;102983.72;9776951;30;20061;-78
2021/04/15 21:29:25;;;;;;;13.00;3.75;;;;;;;5.79;66.61;102983.22;9770054;30;20061;-78
2021/04/15 21:34:25;;;;;;;5.68;2.92;;;;;;;5.47;66.59;102944.13;9772645;30;20056;-78
2021/04/15 21:39:26;;;;;;;9.35;3.40;;;;;;;5.69;67.34;102972.50;9765301;30;20048;-78
2021/04/15 21:44:26;;;;;;;7.18;3.58;;;;;;;5.77;67.72;102980.00;9777002;30;20052;-78
2021/04/15 21:49:27;;;;;;;5.53;2.97;;;;;;;5.85;67.58;102992.84;9768078;30;20384;-78
2021/04/15 21:54:27;;;;;;;4.75;2.75;;;;;;;5.64;67.83;102954.53;9765257;30;20542;-78
2021/04/15 21:59:28;;;;;;;7.35;2.85;;;;;;;5.82;66.61;102945.09;9748423;30;20072;-78
2021/04/15 22:04:29;;;;;;;7.40;3.05;;;;;;;5.87;67.48;102979.97;9761633;30;20056;-78
2021/04/15 22:09:34;;;;;;;6.53;3.00;;;;;;;5.80;68.40;102990.19;9779010;30;20052;-78
2021/04/15 22:14:36;;;;;;;6.57;2.83;;;;;;;5.40;68.54;102943.63;9751912;30;20570;-77
2021/04/15 22:19:36;;;;;;;6.30;3.08;;;;;;;5.70;68.97;102984.88;9781100;30;20044;-77
2021/04/15 22:24:40;;;;;;;7.85;2.88;;;;;;;5.70;69.15;103001.75;9765870;30;20048;-77
2021/04/15 22:29:41;;;;;;;8.13;2.70;;;;;;;5.39;68.78;102947.38;9762477;30;20063;-78
2021/04/15 22:34:43;;;;;;;4.20;2.25;;;;;;;5.58;69.44;102981.69;9771032;30;20052;-78
2021/04/15 22:39:43;;;;;;;8.02;2.40;;;;;;;5.53;69.84;102984.34;9781285;30;20148;-78
2021/04/15 22:44:44;;;;;;;6.43;2.47;;;;;;;5.55;69.58;102998.31;9763418;30;20570;-78
2021/04/15 22:49:45;;;;;;;6.38;2.95;;;;;;;5.40;69.77;102991.09;9772812;30;20051;-78
2021/04/15 22:54:46;;;;;;;5.55;2.88;;;;;;;5.41;69.60;103009.59;9756371;30;20424;-78
2021/04/15 22:59:47;;;;;;;8.90;3.40;;;;;;;5.30;70.07;103002.66;9774250;30;20053;-78
2021/04/15 23:04:47;;;;;;;7.00;2.33;;;;;;;5.17;70.03;102992.47;9765713;30;20056;-78
2021/04/15 23:09:48;;;;;;;7.10;2.60;;;;;;;5.09;69.89;102997.28;9774046;30;20049;-77
2021/04/15 23:14:48;;;;;;;5.15;2.22;;;;;;;5.03;69.30;102993.00;9774059;30;20057;-78
2021/04/15 23:19:49;;;;;;;3.58;2.20;;;;;;;4.36;69.37;102887.69;9776948;30;20060;-77
2021/04/15 23:24:49;;;;;;;5.05;2.47;;;;;;;4.62;69.59;102936.72;9780629;30;20148;-78
2021/04/15 23:29:50;;;;;;;4.22;1.98;;;;;;;4.79;69.50;102970.47;9772214;30;20129;-77
2021/04/15 23:34:51;;;;;;;5.95;2.35;;;;;;;4.70;69.05;102972.09;9772334;30;20309;-76
2021/04/15 23:39:52;;;;;;;6.28;2.38;;;;;;;4.71;68.98;102979.06;9779300;30;20079;-75
2021/04/15 23:44:52;;;;;;;5.65;2.10;;;;;;;4.76;68.94;102976.38;9770008;30;20391;-76
2021/04/15 23:49:52;;;;;;;4.13;2.08;;;;;;;4.70;68.66;102988.16;9776928;30;20569;-76
2021/04/15 23:54:55;;;;;;;5.25;2.03;;;;;;;4.50;69.11;102979.03;9780265;30;20071;-76
2021/04/15 23:59:55;;;;;;;;;;;;;;;4.49;69.62;102971.25;9771099;30;20438;-76
